This is the latest recevied weather packets stored in our database for station/object HA6IFZ-10. If no packets are shown the sender has not sent any weather packets the latest 10 day(s).
| Time | Temp. | Humidity | Pressure | Rain* | Wind** | Luminosity | Snow |
|---|---|---|---|---|---|---|---|
| 1787885288 | 18.89° C | 55% | 1027.5 hPa | - | - | - | - |
| 1787884388 | 18.33° C | 54% | 1027.6 hPa | - | - | - | - |
| 1787883487 | 18.89° C | 52% | 1027.5 hPa | - | - | - | - |
| 1787882587 | 18.89° C | 53% | 1027.6 hPa | - | - | - | - |
| 1787881687 | 18.33° C | 56% | 1027.6 hPa | - | - | - | - |
| 1787880787 | 19.44° C | 51% | 1027.9 hPa | - | - | - | - |
| 1787879887 | 20° C | 50% | 1027.7 hPa | - | - | - | - |
| 1787878987 | 18.89° C | 53% | 1027.8 hPa | - | - | - | - |
| 1787878086 | 20° C | 51% | 1027.9 hPa | - | - | - | - |
| 1787877186 | 20° C | 51% | 1028 hPa | - | - | - | - |
| 1787876286 | 20° C | 50% | 1028.2 hPa | - | - | - | - |
| 1787875386 | 20° C | 50% | 1028.2 hPa | - | - | - | - |
| 1787874485 | 21.11° C | 48% | 1028.1 hPa | - | - | - | - |
| 1787873585 | 21.11° C | 48% | 1028.2 hPa | - | - | - | - |
| 1787872685 | 21.11° C | 48% | 1028.1 hPa | - | - | - | - |
| 1787870887 | 21.67° C | 48% | 1028.1 hPa | - | - | - | - |
| 1787869986 | 21.67° C | 44% | 1028.1 hPa | - | - | - | - |
| 1787869086 | 21.67° C | 41% | 1028 hPa | - | - | - | - |
| 1787868186 | 21.67° C | 43% | 1028.2 hPa | - | - | - | - |
| 1787867286 | 21.67° C | 43% | 1028.2 hPa | - | - | - | - |
| 1787866386 | 21.67° C | 44% | 1028 hPa | - | - | - | - |
| 1787865486 | 21.11° C | 44% | 1028.1 hPa | - | - | - | - |
| 1787864586 | 21.11° C | 43% | 1027.9 hPa | - | - | - | - |
| 1787863686 | 21.67° C | 42% | 1027.9 hPa | - | - | - | - |
| 1787862786 | 21.67° C | 42% | 1027.8 hPa | - | - | - | - |
* Rain since midnight (hover to see other rain measurements)
** Current wind speed in m/s (hover to see current wind gust speed)